Time;durP1;ratioP1;P1;durP2;ratioP2;P2;SDS_P1;SDS_P2;PMS_P1;PMS_P2;Temp;Humidity;BMP_temperature;BMP_pressure;BME280_temperature;BME280_humidity;BME280_pressure;Samples;Min_cycle;Max_cycle;Signal;HPM_P1;HPM_P2
2023/08/20 00:01:28;;;;;;;8.85;7.40;;;22.00;99.90;;;22.07;100.00;97600.81;5042099;28;20512;-38
2023/08/20 00:03:55;;;;;;;8.18;7.38;;;21.90;99.90;;;22.06;100.00;97596.44;5041274;28;20116;-38
2023/08/20 00:06:22;;;;;;;8.63;7.18;;;22.00;99.90;;;22.11;100.00;97603.16;5036139;28;20037;-37
2023/08/20 00:08:49;;;;;;;9.88;7.20;;;22.00;99.90;;;22.17;100.00;97598.25;5035075;28;20496;-37
2023/08/20 00:11:15;;;;;;;10.43;7.50;;;22.00;99.90;;;22.19;100.00;97598.97;5039922;28;20043;-37
2023/08/20 00:13:41;;;;;;;7.50;6.70;;;22.10;99.90;;;22.20;100.00;97604.22;5035065;28;20497;-37
2023/08/20 00:16:08;;;;;;;7.45;6.75;;;22.10;99.90;;;22.18;100.00;97592.75;5035926;28;20059;-37
2023/08/20 00:18:34;;;;;;;9.05;7.35;;;22.10;99.90;;;22.26;100.00;97603.75;5043533;28;20497;-37
2023/08/20 00:21:00;;;;;;;9.30;7.82;;;22.10;99.90;;;22.28;100.00;97598.25;5038500;28;20052;-37
2023/08/20 00:23:27;;;;;;;9.50;7.85;;;22.20;99.90;;;22.23;100.00;97595.91;5036330;28;20033;-37
2023/08/20 00:25:53;;;;;;;10.13;7.25;;;22.20;99.90;;;22.25;100.00;97596.66;5039096;28;20052;-37
2023/08/20 00:28:21;;;;;;;8.90;7.18;;;22.20;99.90;;;22.30;100.00;97598.97;5037925;28;20040;-37
2023/08/20 00:30:48;;;;;;;9.73;7.00;;;22.20;99.90;;;22.34;100.00;97610.34;5036185;28;20064;-37
2023/08/20 00:33:14;;;;;;;11.07;6.90;;;22.20;99.90;;;22.34;100.00;97613.03;5033346;28;20043;-37
2023/08/20 00:35:40;;;;;;;9.60;6.80;;;22.20;99.90;;;22.35;100.00;97609.38;5033657;28;20029;-37
2023/08/20 00:38:06;;;;;;;9.45;7.25;;;22.20;99.90;;;22.37;100.00;97615.47;5034185;28;20032;-37
2023/08/20 00:40:32;;;;;;;9.60;7.68;;;22.20;99.90;;;22.34;100.00;97608.50;5035197;28;20029;-37
2023/08/20 00:42:57;;;;;;;7.90;7.10;;;22.20;99.90;;;22.33;100.00;97611.34;5035727;28;20036;-37
2023/08/20 00:45:24;;;;;;;8.88;6.93;;;22.20;99.90;;;22.20;100.00;97596.16;5036819;28;20037;-37
2023/08/20 00:47:51;;;;;;;8.73;7.70;;;22.10;99.90;;;22.21;100.00;97608.59;5036152;28;20056;-37
2023/08/20 00:50:18;;;;;;;9.02;7.38;;;22.10;99.90;;;22.18;100.00;97614.25;5037512;28;20059;-37
2023/08/20 00:52:45;;;;;;;12.07;8.55;;;22.10;99.90;;;22.14;100.00;97617.28;5037307;28;20116;-37
2023/08/20 00:55:12;;;;;;;9.02;6.88;;;22.00;99.90;;;22.12;100.00;97607.53;5037823;28;20087;-37
2023/08/20 00:57:39;;;;;;;9.52;7.18;;;22.00;99.90;;;22.11;100.00;97608.50;5034426;28;20038;-37
2023/08/20 01:00:10;;;;;;;9.48;7.00;;;22.00;99.90;;;22.08;100.00;97608.75;5037041;28;20026;-37
2023/08/20 01:02:37;;;;;;;8.68;7.05;;;22.00;99.90;;;21.86;100.00;97577.41;5037497;28;20454;-37
2023/08/20 01:05:07;;;;;;;8.07;7.22;;;21.90;99.90;;;22.02;100.00;97611.06;5035712;28;20508;-37
2023/08/20 01:07:38;;;;;;;9.68;7.85;;;21.90;99.90;;;21.99;100.00;97611.34;5034479;28;20444;-37
2023/08/20 01:10:35;;;;;;;8.23;7.43;;;21.90;99.90;;;22.00;100.00;97613.03;5036557;28;20489;-37
2023/08/20 01:13:00;;;;;;;9.35;7.45;;;21.90;99.90;;;21.99;100.00;97617.56;5032255;28;20318;-37
2023/08/20 01:15:26;;;;;;;8.05;7.28;;;21.90;99.90;;;21.97;100.00;97613.28;5040190;28;20025;-37
2023/08/20 01:17:52;;;;;;;13.10;8.35;;;21.90;99.90;;;21.95;100.00;97610.72;5042457;28;20033;-37
2023/08/20 01:20:18;;;;;;;16.05;9.63;;;21.90;99.90;;;21.96;100.00;97617.78;5035450;28;20041;-37
2023/08/20 01:23:05;;;;;;;8.70;7.80;;;21.90;99.90;;;21.99;100.00;97617.56;5046108;28;20489;-37
2023/08/20 01:25:53;;;;;;;9.68;7.65;;;21.90;99.90;;;21.99;100.00;97612.19;5043625;28;20033;-37
2023/08/20 01:28:31;;;;;;;11.65;7.70;;;21.90;99.90;;;21.99;100.00;97616.72;5043163;28;20037;-37
2023/08/20 01:31:00;;;;;;;8.25;7.45;;;21.90;99.90;;;21.97;100.00;97618.66;5039830;28;20546;-37
2023/08/20 01:33:26;;;;;;;9.68;7.68;;;21.90;99.90;;;21.91;100.00;97620.84;5041329;28;20025;-37
2023/08/20 01:35:54;;;;;;;10.57;7.60;;;21.80;99.90;;;21.88;100.00;97621.09;5035354;28;20029;-37
2023/08/20 01:38:20;;;;;;;10.25;7.53;;;21.80;99.90;;;21.83;100.00;97623.28;5036826;28;20036;-37
2023/08/20 01:40:46;;;;;;;8.68;7.88;;;21.70;99.90;;;21.76;100.00;97622.06;5037081;28;20244;-37
2023/08/20 01:43:12;;;;;;;16.08;7.90;;;21.70;99.90;;;21.75;100.00;97620.38;5033331;28;20501;-37
2023/08/20 01:45:38;;;;;;;10.55;7.32;;;21.70;99.90;;;21.72;100.00;97623.28;5031464;28;20037;-37
2023/08/20 01:48:04;;;;;;;12.52;8.05;;;21.60;99.90;;;21.71;100.00;97625.13;5037304;28;20091;-37
2023/08/20 01:50:30;;;;;;;10.95;8.27;;;21.60;99.90;;;21.71;100.00;97627.81;5035033;28;20041;-37
2023/08/20 01:52:56;;;;;;;9.68;8.10;;;21.60;99.90;;;21.65;100.00;97616.69;5041426;28;20025;-37
2023/08/20 01:55:22;;;;;;;10.35;7.28;;;21.60;99.90;;;21.70;100.00;97627.94;5034471;28;20087;-37
2023/08/20 01:57:47;;;;;;;9.32;7.60;;;21.60;99.90;;;21.62;100.00;97615.09;5039545;28;20036;-37
2023/08/20 02:00:14;;;;;;;11.10;7.95;;;21.60;99.90;;;21.61;100.00;97628.66;5035799;28;20032;-37
2023/08/20 02:02:40;;;;;;;9.90;7.22;;;21.50;99.90;;;21.60;100.00;97632.31;5037342;28;20025;-37
2023/08/20 02:05:06;;;;;;;10.50;7.18;;;21.50;99.90;;;21.54;100.00;97630.97;5039280;28;20120;-37
2023/08/20 02:07:31;;;;;;;8.52;7.50;;;21.40;99.90;;;21.47;100.00;97627.88;5037563;28;20554;-37
2023/08/20 02:09:57;;;;;;;9.57;7.55;;;21.30;99.90;;;21.41;100.00;97633.72;5040216;28;20224;-37
2023/08/20 02:12:26;;;;;;;8.18;7.38;;;21.30;99.90;;;21.31;100.00;97622.81;5032416;28;20033;-37
2023/08/20 02:14:52;;;;;;;10.63;7.75;;;21.20;99.90;;;21.27;100.00;97628.56;5037943;28;20288;-37
2023/08/20 02:17:17;;;;;;;10.07;7.43;;;21.20;99.90;;;21.19;100.00;97625.59;5035385;28;20021;-37
2023/08/20 02:19:43;;;;;;;8.30;7.35;;;21.10;99.90;;;21.18;100.00;97627.44;5038788;28;20021;-37
2023/08/20 02:22:09;;;;;;;8.68;7.78;;;21.10;99.90;;;21.13;100.00;97629.59;5020332;28;20423;-37
2023/08/20 02:24:34;;;;;;;8.63;7.68;;;21.10;99.90;;;21.09;100.00;97626.31;5030678;28;20030;-37
2023/08/20 02:27:00;;;;;;;9.73;7.75;;;21.00;99.90;;;21.05;100.00;97632.88;5036512;28;20587;-37
2023/08/20 02:29:26;;;;;;;9.63;7.65;;;21.00;99.90;;;21.04;100.00;97628.47;5036124;28;20208;-37
2023/08/20 02:31:51;;;;;;;9.70;8.13;;;21.00;99.90;;;21.04;100.00;97631.16;5035441;28;20063;-37
2023/08/20 02:34:17;;;;;;;8.60;7.25;;;21.00;99.90;;;21.01;100.00;97631.38;5036729;28;20037;-37
2023/08/20 02:36:43;;;;;;;10.05;7.80;;;20.90;99.90;;;20.96;100.00;97629.06;5037264;28;20500;-37
2023/08/20 02:39:08;;;;;;;9.23;8.02;;;20.90;99.90;;;20.92;100.00;97624.03;5035909;28;20083;-37
2023/08/20 02:41:35;;;;;;;10.80;8.40;;;20.90;99.90;;;20.89;100.00;97632.31;5031806;28;20505;-37
2023/08/20 02:44:04;;;;;;;9.88;8.10;;;20.80;99.90;;;20.85;100.00;97631.69;5033842;28;20454;-37
2023/08/20 02:46:30;;;;;;;9.23;7.80;;;20.80;99.90;;;20.78;100.00;97625.06;5032215;28;20036;-37
2023/08/20 02:48:56;;;;;;;10.35;8.02;;;20.70;99.90;;;20.79;100.00;97635.69;5035459;28;20040;-37
2023/08/20 02:51:22;;;;;;;9.05;8.15;;;20.70;99.90;;;20.79;100.00;97634.84;5037661;28;20056;-37
2023/08/20 02:53:48;;;;;;;10.18;7.93;;;20.70;99.90;;;20.72;100.00;97628.22;5040261;28;20036;-37
2023/08/20 02:56:13;;;;;;;9.52;8.38;;;20.70;99.90;;;20.72;100.00;97625.53;5036546;28;20078;-37
2023/08/20 02:58:39;;;;;;;8.93;8.00;;;20.70;99.90;;;20.69;100.00;97621.28;5037181;28;20052;-37
2023/08/20 03:01:05;;;;;;;9.43;8.15;;;20.70;99.90;;;20.59;100.00;97604.97;5035279;28;20021;-37
2023/08/20 03:03:31;;;;;;;9.88;8.85;;;20.60;99.90;;;20.64;100.00;97611.84;5035730;28;20036;-37
2023/08/20 03:05:57;;;;;;;10.48;8.95;;;20.60;99.90;;;20.56;100.00;97613.25;5039941;28;20036;-37
2023/08/20 03:08:22;;;;;;;13.02;8.68;;;20.60;99.90;;;20.56;100.00;97607.88;5033174;28;20036;-37
2023/08/20 03:10:48;;;;;;;9.15;8.20;;;20.50;99.90;;;20.55;100.00;97616.06;5033809;28;20543;-37
2023/08/20 03:13:14;;;;;;;12.05;8.50;;;20.50;99.90;;;20.53;100.00;97612.59;5038339;28;20165;-37
2023/08/20 03:15:40;;;;;;;9.27;8.32;;;20.50;99.90;;;20.50;100.00;97610.19;5037070;28;20033;-37
2023/08/20 03:18:06;;;;;;;13.60;8.68;;;20.40;99.90;;;20.47;100.00;97613.06;5037691;28;20074;-37
2023/08/20 03:20:32;;;;;;;10.60;8.68;;;20.40;99.90;;;20.44;100.00;97606.13;5029141;28;20040;-37
2023/08/20 03:22:58;;;;;;;12.68;8.73;;;20.40;99.90;;;20.41;100.00;97609.03;5033574;28;20034;-37
2023/08/20 03:25:23;;;;;;;11.73;9.52;;;20.40;99.90;;;20.34;100.00;97605.09;5036776;28;20037;-37
2023/08/20 03:27:51;;;;;;;10.60;8.52;;;20.30;99.90;;;20.36;100.00;97614.72;5033738;28;20143;-37
2023/08/20 03:30:18;;;;;;;10.40;8.55;;;20.30;99.90;;;20.36;100.00;97621.91;5035294;28;20322;-37
2023/08/20 03:32:43;;;;;;;9.95;8.88;;;20.30;99.90;;;20.32;100.00;97613.25;5030597;28;20035;-37
2023/08/20 03:35:09;;;;;;;11.20;9.13;;;20.30;99.90;;;20.32;100.00;97623.94;5037320;28;20025;-37
2023/08/20 03:37:35;;;;;;;10.98;9.32;;;20.30;99.90;;;20.31;100.00;97622.22;5031318;28;20342;-37
2023/08/20 03:40:02;;;;;;;11.10;9.88;;;20.20;99.90;;;20.29;100.00;97616.13;5037290;28;20112;-37
2023/08/20 03:42:28;;;;;;;10.68;9.57;;;20.20;99.90;;;20.27;100.00;97618.06;5039637;28;20033;-37
2023/08/20 03:44:53;;;;;;;12.18;9.75;;;20.20;99.90;;;20.25;100.00;97611.13;5033533;28;20068;-37
2023/08/20 03:47:20;;;;;;;11.18;9.38;;;20.20;99.90;;;20.22;100.00;97606.84;5028140;28;20521;-37
2023/08/20 03:49:48;;;;;;;10.30;9.20;;;20.20;99.90;;;20.16;100.00;97602.78;5029705;28;20033;-37
2023/08/20 03:52:13;;;;;;;11.40;8.95;;;20.10;99.90;;;20.19;100.00;97607.94;5031283;28;20294;-37
2023/08/20 03:54:39;;;;;;;10.63;8.57;;;20.10;99.90;;;20.18;100.00;97614.22;5033883;28;20541;-37
2023/08/20 03:57:05;;;;;;;10.95;9.77;;;20.10;99.90;;;20.16;100.00;97605.47;5040828;28;20037;-37
2023/08/20 03:59:31;;;;;;;10.23;9.05;;;20.10;99.90;;;20.15;100.00;97609.13;5034422;28;20103;-37
2023/08/20 04:01:57;;;;;;;10.65;9.55;;;20.10;99.90;;;20.08;100.00;97596.28;5033014;28;20528;-37
2023/08/20 04:04:22;;;;;;;11.57;9.35;;;20.10;99.90;;;20.09;100.00;97600.66;5033762;28;20043;-37
2023/08/20 04:06:48;;;;;;;10.80;8.95;;;20.10;99.90;;;20.05;100.00;97599.19;5039492;28;20033;-37
2023/08/20 04:09:14;;;;;;;10.05;9.00;;;20.10;99.90;;;20.10;100.00;97618.44;5036208;28;20037;-37
2023/08/20 04:11:39;;;;;;;11.15;9.73;;;20.10;99.90;;;20.08;100.00;97623.91;5036983;28;20033;-37
2023/08/20 04:14:05;;;;;;;10.98;9.65;;;20.00;99.90;;;20.05;100.00;97616.09;5033433;28;20163;-37
2023/08/20 04:16:31;;;;;;;10.82;8.57;;;20.00;99.90;;;20.06;100.00;97627.66;5035204;28;20041;-37
2023/08/20 04:18:57;;;;;;;10.80;9.60;;;20.00;99.90;;;20.01;100.00;97617.28;5036722;28;20093;-37
2023/08/20 04:21:22;;;;;;;10.05;8.52;;;20.00;99.90;;;19.93;100.00;97607.13;5032714;28;20448;-37
2023/08/20 04:23:48;;;;;;;9.35;7.90;;;20.00;99.90;;;19.97;100.00;97619.34;5033696;28;20087;-37
2023/08/20 04:26:14;;;;;;;10.88;9.13;;;19.90;99.90;;;19.95;100.00;97618.56;5036115;28;20437;-37
2023/08/20 04:28:40;;;;;;;10.57;9.48;;;19.90;99.90;;;19.92;100.00;97616.13;5034806;28;20179;-37
2023/08/20 04:31:05;;;;;;;12.68;9.35;;;19.90;99.90;;;19.95;100.00;97626.59;5034260;28;20037;-37
2023/08/20 04:33:31;;;;;;;13.32;9.25;;;19.90;99.90;;;19.97;100.00;97623.81;5034093;28;20075;-37
2023/08/20 04:35:57;;;;;;;11.15;9.38;;;19.90;99.90;;;19.97;100.00;97622.03;5039228;28;20041;-36
2023/08/20 04:38:22;;;;;;;11.93;9.60;;;19.90;99.90;;;19.99;100.00;97622.75;5034802;28;20032;-37
2023/08/20 04:40:49;;;;;;;12.50;9.48;;;19.90;99.90;;;20.00;100.00;97628.97;5037284;28;20316;-37
2023/08/20 04:43:15;;;;;;;10.70;9.60;;;20.00;99.90;;;19.96;100.00;97628.31;5036758;28;20025;-37
2023/08/20 04:45:42;;;;;;;11.32;9.32;;;20.00;99.90;;;20.05;100.00;97634.00;5032401;28;20036;-37
2023/08/20 04:48:08;;;;;;;12.70;9.25;;;20.00;99.90;;;20.05;100.00;97634.84;5040921;28;20554;-37
2023/08/20 04:50:34;;;;;;;10.90;8.77;;;20.00;99.90;;;20.07;100.00;97645.44;5040705;28;20025;-37
2023/08/20 04:53:00;;;;;;;11.75;8.32;;;20.00;99.90;;;20.08;100.00;97649.81;5038878;28;20060;-37
2023/08/20 04:55:29;;;;;;;10.35;8.80;;;20.00;99.90;;;20.01;100.00;97642.25;5040669;28;20080;-37
2023/08/20 04:57:54;;;;;;;12.35;8.77;;;20.10;99.90;;;20.08;100.00;97647.13;5038558;28;20229;-37
2023/08/20 05:00:22;;;;;;;9.80;8.70;;;20.00;99.90;;;20.13;100.00;97659.22;5032912;28;20040;-37
2023/08/20 05:02:48;;;;;;;10.52;9.35;;;20.10;99.90;;;20.14;100.00;97662.78;5043390;28;20067;-37
2023/08/20 05:05:13;;;;;;;12.35;8.90;;;20.10;99.90;;;20.18;100.00;97658.91;5034803;28;20036;-37
2023/08/20 05:07:40;;;;;;;9.60;8.60;;;20.10;99.90;;;20.19;100.00;97658.81;5040002;28;20042;-37
2023/08/20 05:10:08;;;;;;;9.05;8.15;;;20.10;99.90;;;20.22;100.00;97660.38;5036726;28;20120;-37
2023/08/20 05:12:34;;;;;;;10.65;8.88;;;20.20;99.90;;;20.28;100.00;97661.75;5042164;28;20074;-37
2023/08/20 05:15:00;;;;;;;10.48;8.77;;;20.20;99.90;;;20.32;100.00;97656.09;5035835;28;20045;-37
2023/08/20 05:17:25;;;;;;;9.88;8.70;;;20.30;99.90;;;20.34;100.00;97640.75;5032553;28;20033;-37
2023/08/20 05:19:51;;;;;;;11.35;9.80;;;20.30;99.90;;;20.32;100.00;97617.75;5038039;28;20044;-37
2023/08/20 05:22:17;;;;;;;14.18;10.52;;;20.30;99.90;;;20.38;100.00;97607.41;5028813;28;20060;-37
2023/08/20 05:24:42;;;;;;;12.98;10.65;;;20.40;99.90;;;20.49;100.00;97616.50;5040203;28;20029;-37
2023/08/20 05:27:15;;;;;;;12.63;10.85;;;20.40;99.90;;;20.57;100.00;97636.41;5041377;28;20036;-37
2023/08/20 05:29:41;;;;;;;13.98;10.57;;;20.50;99.90;;;20.63;100.00;97645.84;5037240;28;20098;-37
2023/08/20 05:32:08;;;;;;;12.07;10.88;;;20.60;99.90;;;20.75;100.00;97665.53;5032408;28;20041;-37
2023/08/20 05:34:33;;;;;;;12.35;10.52;;;20.70;99.90;;;20.77;100.00;97642.97;5034399;28;20025;-37
2023/08/20 05:37:00;;;;;;;10.60;9.32;;;20.80;99.90;;;20.93;100.00;97655.25;5039902;28;20418;-37
2023/08/20 05:39:26;;;;;;;9.65;7.97;;;20.90;99.90;;;20.99;100.00;97654.78;5025302;28;20166;-37
2023/08/20 05:41:53;;;;;;;9.93;8.93;;;20.90;99.90;;;21.04;100.00;97667.84;5036664;28;20481;-37
2023/08/20 05:44:19;;;;;;;13.48;9.13;;;21.00;99.90;;;21.02;100.00;97656.38;5039684;28;20540;-37
2023/08/20 05:46:45;;;;;;;11.40;9.32;;;21.00;99.90;;;21.10;100.00;97670.94;5032041;28;20037;-37
2023/08/20 05:49:12;;;;;;;13.18;9.13;;;21.00;99.90;;;21.17;100.00;97671.28;5037381;28;20039;-37
2023/08/20 05:51:38;;;;;;;10.68;8.82;;;21.10;99.90;;;21.22;100.00;97671.81;5037348;28;20029;-37
2023/08/20 05:54:03;;;;;;;9.15;8.05;;;21.20;99.90;;;21.33;100.00;97673.66;5028640;28;20044;-37
2023/08/20 05:56:29;;;;;;;8.93;8.00;;;21.30;99.90;;;21.45;100.00;97677.25;5034047;28;20082;-37
2023/08/20 05:58:55;;;;;;;9.73;8.73;;;21.40;99.90;;;21.56;100.00;97669.25;5036912;28;20033;-37
2023/08/20 06:01:21;;;;;;;9.95;8.70;;;21.50;99.90;;;21.71;100.00;97672.56;5031176;28;20623;-37
2023/08/20 06:03:47;;;;;;;9.93;8.98;;;21.70;99.90;;;21.89;100.00;97675.63;5036533;28;20033;-37
2023/08/20 06:06:13;;;;;;;8.93;8.02;;;21.90;99.90;;;22.12;100.00;97681.88;5032518;28;20232;-37
2023/08/20 06:08:38;;;;;;;9.35;8.15;;;22.10;99.90;;;22.38;100.00;97677.16;5029002;28;20036;-37
2023/08/20 06:11:04;;;;;;;10.52;8.93;;;22.30;99.90;;;22.64;100.00;97684.91;5036828;28;20037;-37
2023/08/20 06:13:30;;;;;;;12.93;8.50;;;22.60;99.90;;;22.89;100.00;97689.13;5038869;28;20029;-37
2023/08/20 06:15:55;;;;;;;13.82;9.57;;;22.80;99.90;;;23.09;100.00;97681.28;5030289;28;20072;-37
2023/08/20 06:18:21;;;;;;;12.48;9.10;;;23.10;99.90;;;23.32;100.00;97682.88;5037928;28;20040;-37
2023/08/20 06:20:47;;;;;;;11.13;8.65;;;23.20;99.90;;;23.52;100.00;97696.47;5035244;28;20021;-37
2023/08/20 06:23:13;;;;;;;9.45;8.20;;;23.50;99.90;;;23.71;100.00;97693.91;5038508;28;20037;-37
2023/08/20 06:25:38;;;;;;;10.27;8.25;;;23.60;99.90;;;23.83;100.00;97689.34;5036773;28;20037;-37
2023/08/20 06:28:04;;;;;;;8.95;7.75;;;23.70;99.90;;;23.93;100.00;97692.09;5036930;28;20024;-37
2023/08/20 06:30:30;;;;;;;9.20;7.75;;;23.80;99.90;;;23.97;100.00;97704.31;5032654;28;20236;-37
2023/08/20 06:32:56;;;;;;;8.95;8.05;;;23.90;99.90;;;23.95;100.00;97700.88;5038938;28;20037;-37
2023/08/20 06:35:21;;;;;;;11.57;7.15;;;23.90;99.90;;;23.97;100.00;97698.91;5037429;28;20029;-37
2023/08/20 06:37:47;;;;;;;7.55;6.82;;;23.90;99.90;;;23.98;100.00;97692.56;5033027;28;20072;-37
2023/08/20 06:40:13;;;;;;;9.35;7.68;;;23.90;99.90;;;24.05;100.00;97701.81;5038870;28;20472;-37
2023/08/20 06:42:39;;;;;;;12.50;7.85;;;23.90;99.90;;;24.05;100.00;97699.13;5037175;28;20036;-37
2023/08/20 06:45:06;;;;;;;10.57;7.45;;;24.00;99.90;;;24.20;100.00;97702.28;5035179;28;20517;-37
2023/08/20 06:47:31;;;;;;;12.23;7.72;;;24.10;99.90;;;24.32;100.00;97694.97;5033098;28;20044;-37
2023/08/20 06:49:57;;;;;;;14.00;8.80;;;24.20;99.90;;;24.37;100.00;97692.69;5035018;28;20028;-37
2023/08/20 06:52:23;;;;;;;8.35;7.47;;;24.30;99.90;;;24.49;100.00;97697.00;5036636;28;20783;-37
2023/08/20 06:54:48;;;;;;;9.20;8.20;;;24.40;99.90;;;24.63;100.00;97703.91;5033707;28;20056;-37
2023/08/20 06:57:14;;;;;;;11.43;8.90;;;24.50;99.90;;;24.75;100.00;97699.25;5036570;28;20040;-37
2023/08/20 06:59:42;;;;;;;10.10;8.60;;;24.70;99.90;;;24.71;100.00;97705.91;5035536;28;20079;-37
2023/08/20 07:02:08;;;;;;;10.40;9.15;;;24.70;99.90;;;24.75;100.00;97710.03;5034461;28;20593;-37
2023/08/20 07:04:33;;;;;;;10.75;7.80;;;24.70;99.90;;;24.84;100.00;97706.50;5034603;28;20055;-37
2023/08/20 07:06:59;;;;;;;9.15;8.18;;;24.70;99.90;;;24.90;100.00;97707.78;5028854;28;20037;-37
2023/08/20 07:09:25;;;;;;;10.98;8.38;;;24.70;99.90;;;25.06;100.00;97713.50;5032063;28;20398;-37
2023/08/20 07:11:50;;;;;;;12.38;8.57;;;24.90;99.90;;;25.18;100.00;97722.31;5040745;28;20390;-37
2023/08/20 07:14:16;;;;;;;10.05;8.32;;;25.00;99.90;;;25.07;100.00;97701.72;5041419;28;20043;-37
2023/08/20 07:16:42;;;;;;;10.35;8.63;;;24.90;99.90;;;24.99;100.00;97706.97;5034730;28;20069;-37
2023/08/20 07:19:08;;;;;;;8.68;7.75;;;24.80;99.90;;;24.95;100.00;97717.16;5036172;28;20056;-37
2023/08/20 07:21:33;;;;;;;9.70;7.57;;;24.70;99.90;;;25.01;100.00;97721.16;5034906;28;20090;-37
2023/08/20 07:23:59;;;;;;;10.20;8.20;;;24.80;99.90;;;25.09;100.00;97724.00;5038962;28;20037;-37
2023/08/20 07:26:25;;;;;;;10.50;8.65;;;24.90;99.90;;;25.17;100.00;97717.91;5032341;28;20062;-37
2023/08/20 07:28:56;;;;;;;9.32;7.65;;;25.00;99.90;;;25.33;100.00;97729.03;5036448;28;20045;-37
2023/08/20 07:31:27;;;;;;;12.57;8.68;;;25.20;99.90;;;25.53;100.00;97737.97;5033134;28;20431;-37
2023/08/20 07:33:54;;;;;;;11.27;8.02;;;25.30;99.90;;;25.66;100.00;97740.41;5033836;28;20037;-37
2023/08/20 07:36:24;;;;;;;10.43;8.60;;;25.40;99.90;;;25.74;100.00;97736.97;5031383;28;20030;-37
2023/08/20 07:38:51;;;;;;;11.45;9.00;;;25.60;99.90;;;25.82;100.00;97736.25;5033717;28;20033;-37
2023/08/20 07:41:17;;;;;;;9.70;7.80;;;25.70;99.90;;;26.05;100.00;97753.88;5029436;28;20029;-37
2023/08/20 07:43:43;;;;;;;8.85;7.95;;;25.80;99.90;;;26.10;100.00;97738.06;5032485;28;20055;-37
2023/08/20 07:46:09;;;;;;;11.80;8.70;;;26.00;99.90;;;26.32;100.00;97744.13;5037201;28;20252;-37
2023/08/20 07:48:35;;;;;;;9.25;8.23;;;26.10;99.90;;;26.38;100.00;97753.50;5035481;28;20036;-37
2023/08/20 07:51:02;;;;;;;9.60;7.88;;;26.10;99.90;;;26.31;100.00;97746.97;5039254;28;20196;-37
2023/08/20 07:53:29;;;;;;;8.75;7.90;;;26.10;99.90;;;26.33;100.00;97753.09;5033407;28;20029;-37
2023/08/20 07:55:55;;;;;;;8.13;7.32;;;26.00;99.90;;;26.41;100.00;97750.50;5041080;28;20504;-37
2023/08/20 07:58:21;;;;;;;9.45;8.00;;;26.10;99.90;;;26.32;100.00;97740.56;5038627;28;20025;-37
2023/08/20 08:00:47;;;;;;;9.25;7.68;;;26.10;99.90;;;26.44;100.00;97753.75;5032590;28;20033;-37
2023/08/20 08:03:14;;;;;;;9.50;8.32;;;26.10;99.90;;;26.51;100.00;97758.59;5033578;28;20025;-37
2023/08/20 08:05:41;;;;;;;12.25;8.73;;;26.20;99.90;;;26.48;100.00;97757.88;5032772;28;20667;-37
2023/08/20 08:08:06;;;;;;;12.75;9.05;;;26.30;99.90;;;26.45;100.00;97758.19;5031399;28;20034;-37
2023/08/20 08:10:32;;;;;;;11.50;8.32;;;26.20;99.90;;;26.52;100.00;97758.41;5037525;28;20373;-37
2023/08/20 08:12:58;;;;;;;8.88;7.97;;;26.30;99.90;;;26.69;100.00;97764.09;5044258;28;20572;-37
2023/08/20 08:15:23;;;;;;;12.70;9.40;;;26.40;99.90;;;26.65;100.00;97760.84;5040167;28;20413;-37
2023/08/20 08:17:49;;;;;;;10.90;8.15;;;26.40;99.90;;;26.50;100.00;97756.88;5036713;28;20051;-37
2023/08/20 08:20:15;;;;;;;10.63;7.72;;;26.30;99.90;;;26.39;100.00;97764.16;5030237;28;20032;-37
2023/08/20 08:22:40;;;;;;;10.88;8.60;;;26.10;99.90;;;26.38;100.00;97761.59;5040707;28;20033;-37
2023/08/20 08:25:06;;;;;;;8.48;7.50;;;26.10;99.90;;;26.49;100.00;97766.84;5033715;28;20227;-37
2023/08/20 08:27:32;;;;;;;9.88;8.27;;;26.20;99.90;;;26.58;100.00;97763.25;5037706;28;20322;-37
2023/08/20 08:29:58;;;;;;;11.80;8.48;;;26.40;99.90;;;26.64;100.00;97768.09;5036045;28;20070;-37
2023/08/20 08:32:23;;;;;;;11.27;8.73;;;26.40;99.90;;;26.77;100.00;97764.19;5033856;28;20578;-37
2023/08/20 08:34:49;;;;;;;9.50;8.30;;;26.50;99.90;;;26.88;100.00;97768.53;5035963;28;20029;-37
2023/08/20 08:37:15;;;;;;;15.00;9.18;;;26.60;99.90;;;26.77;100.00;97762.31;5037897;28;20086;-37
2023/08/20 08:39:41;;;;;;;10.35;8.98;;;26.60;99.90;;;26.85;100.00;97767.00;5039041;28;20428;-37
2023/08/20 08:42:10;;;;;;;12.70;8.73;;;26.60;99.90;;;26.91;100.00;97754.72;5035918;28;20021;-37
2023/08/20 08:44:37;;;;;;;9.32;8.38;;;26.70;99.90;;;26.91;100.00;97752.84;5036214;28;20242;-36
2023/08/20 08:47:04;;;;;;;12.32;9.32;;;26.80;99.90;;;26.99;100.00;97760.22;5038245;28;20029;-36
2023/08/20 08:49:34;;;;;;;13.15;8.57;;;26.90;99.90;;;27.15;100.00;97770.38;5034499;28;20036;-36
2023/08/20 08:52:01;;;;;;;10.10;8.55;;;27.00;99.90;;;27.24;100.00;97764.91;5041295;28;20033;-37
2023/08/20 08:54:27;;;;;;;12.73;8.45;;;27.00;99.90;;;27.27;100.00;97771.91;5033322;28;20033;-36
2023/08/20 08:56:53;;;;;;;10.68;8.45;;;27.00;99.90;;;27.36;100.00;97775.53;5034039;28;20044;-36
2023/08/20 08:59:22;;;;;;;9.82;8.45;;;27.10;99.90;;;27.36;100.00;97778.25;5033384;28;20116;-36
2023/08/20 09:01:48;;;;;;;10.23;7.72;;;27.10;99.90;;;27.33;100.00;97770.44;5030463;28;20075;-37
2023/08/20 09:04:13;;;;;;;9.73;8.65;;;27.10;99.90;;;27.36;100.00;97770.13;5037101;28;20039;-37
2023/08/20 09:06:51;;;;;;;10.48;8.77;;;27.10;99.90;;;27.40;100.00;97782.34;5037962;28;20045;-37
2023/08/20 09:09:18;;;;;;;11.48;9.77;;;27.20;99.90;;;27.31;100.00;97773.28;5025598;28;20423;-37
2023/08/20 09:11:44;;;;;;;11.00;8.85;;;27.10;99.90;;;27.31;100.00;97772.44;5028371;28;20040;-37
2023/08/20 09:14:29;;;;;;;9.68;8.68;;;27.10;99.90;;;27.26;100.00;97774.72;5038836;28;20024;-36
2023/08/20 09:17:00;;;;;;;9.98;8.98;;;27.00;99.90;;;27.29;100.00;97775.28;5036874;28;20440;-36
2023/08/20 09:19:31;;;;;;;11.85;8.23;;;27.00;99.90;;;27.42;100.00;97775.78;5038347;28;22189;-36
2023/08/20 09:21:59;;;;;;;9.35;8.35;;;27.10;99.90;;;27.53;100.00;97776.53;5031367;28;20030;-36
2023/08/20 09:24:39;;;;;;;13.93;8.65;;;27.30;99.90;;;27.50;100.00;97761.47;5033389;28;20056;-36
2023/08/20 09:27:05;;;;;;;13.55;8.18;;;27.40;99.90;;;27.70;100.00;97777.56;5033991;28;20033;-37
2023/08/20 09:29:48;;;;;;;10.57;8.00;;;27.40;99.90;;;27.80;100.00;97775.63;5035414;28;20082;-36
2023/08/20 09:32:23;;;;;;;13.95;8.82;;;27.50;99.90;;;27.92;100.00;97782.50;5034426;28;20033;-36
2023/08/20 09:34:50;;;;;;;11.18;9.40;;;27.60;99.90;;;27.83;100.00;97778.00;5035337;28;20118;-36
2023/08/20 09:37:21;;;;;;;11.07;8.63;;;27.60;99.90;;;27.85;100.00;97769.72;5041274;28;20040;-36
2023/08/20 09:39:47;;;;;;;9.40;7.77;;;27.60;99.90;;;27.87;100.00;97773.13;5041605;28;20484;-36
2023/08/20 09:42:14;;;;;;;13.38;8.63;;;27.60;99.90;;;27.90;100.00;97770.97;5036546;28;20108;-36
2023/08/20 09:44:45;;;;;;;10.90;8.50;;;27.60;99.90;;;27.92;100.00;97774.38;5034379;28;20036;-36
2023/08/20 09:47:13;;;;;;;11.35;8.13;;;27.70;99.90;;;28.02;100.00;97782.44;5029977;28;20503;-36
2023/08/20 09:49:44;;;;;;;10.25;8.88;;;27.80;99.90;;;28.10;100.00;97785.22;5031344;28;20061;-36
2023/08/20 09:52:12;;;;;;;9.68;8.05;;;27.90;99.90;;;28.17;100.00;97786.28;5036997;28;20032;-36
2023/08/20 09:55:05;;;;;;;14.27;8.68;;;27.90;99.90;;;28.02;99.44;97765.34;5038274;28;20107;-36
2023/08/20 09:57:37;;;;;;;9.77;8.75;;;27.90;99.90;;;28.08;96.47;97780.94;5034684;28;20040;-36
2023/08/20 10:00:12;;;;;;;8.48;7.50;;;27.90;99.90;;;28.12;96.93;97769.66;5037531;28;20033;-36
2023/08/20 10:02:39;;;;;;;10.73;7.47;;;27.90;99.90;;;28.17;97.13;97769.16;5039088;28;20489;-36
2023/08/20 10:05:12;;;;;;;8.13;7.32;;;27.90;99.90;;;28.21;94.79;97765.13;5033420;28;20033;-36
2023/08/20 10:07:39;;;;;;;10.88;8.95;;;28.00;99.90;;;28.14;87.58;97764.06;5029591;28;20028;-36